Time;durP1;ratioP1;P1;durP2;ratioP2;P2;SDS_P1;SDS_P2;PMS_P1;PMS_P2;Temp;Humidity;BMP_temperature;BMP_pressure;BME280_temperature;BME280_humidity;BME280_pressure;Samples;Min_cycle;Max_cycle;Signal;HPM_P1;HPM_P2
2021/12/11 00:00:41;;;;;;;180.07;73.33;;;1.10;99.90;;;;;;4922174;29;20590;-80
2021/12/11 00:03:14;;;;;;;159.07;63.27;;;1.10;99.90;;;;;;4939384;29;20164;-80
2021/12/11 00:05:43;;;;;;;158.83;63.00;;;1.10;99.90;;;;;;4922158;29;20188;-80
2021/12/11 00:08:10;;;;;;;161.87;64.63;;;1.10;99.90;;;;;;4922313;29;20631;-80
2021/12/11 00:10:43;;;;;;;158.67;60.70;;;1.10;99.90;;;;;;4922046;29;20203;-81
2021/12/11 00:13:19;;;;;;;156.23;63.37;;;1.10;99.90;;;;;;4939461;29;20168;-80
2021/12/11 00:15:47;;;;;;;143.70;56.30;;;1.20;99.90;;;;;;4939047;29;20164;-80
2021/12/11 00:18:19;;;;;;;127.40;51.63;;;1.20;99.90;;;;;;4922196;29;20195;-80
2021/12/11 00:20:58;;;;;;;134.17;55.03;;;1.20;99.90;;;;;;4938822;29;20174;-80
2021/12/11 00:23:33;;;;;;;169.37;66.70;;;1.40;99.90;;;;;;4938919;29;20165;-80
2021/12/11 00:26:00;;;;;;;143.43;57.87;;;1.10;99.90;;;;;;4939468;29;20286;-80
2021/12/11 00:28:26;;;;;;;153.73;60.20;;;1.10;99.90;;;;;;4938685;29;20229;-80
2021/12/11 00:30:52;;;;;;;143.27;57.37;;;1.20;99.90;;;;;;4938892;29;20201;-80
2021/12/11 00:33:25;;;;;;;173.40;66.93;;;1.10;99.90;;;;;;4921814;29;20641;-80
2021/12/11 00:35:54;;;;;;;171.60;65.23;;;1.10;99.90;;;;;;4921985;29;20652;-81
2021/12/11 00:38:32;;;;;;;168.83;67.10;;;1.20;99.90;;;;;;4921735;29;20191;-79
2021/12/11 00:40:59;;;;;;;203.93;78.07;;;1.20;99.90;;;;;;4938949;29;20159;-80
2021/12/11 00:43:30;;;;;;;167.77;63.30;;;1.20;99.90;;;;;;4938357;29;20667;-84
2021/12/11 00:45:58;;;;;;;165.80;64.13;;;1.10;99.90;;;;;;4921624;29;20264;-80
2021/12/11 00:48:27;;;;;;;156.43;61.33;;;1.20;99.90;;;;;;4921593;29;20215;-81
2021/12/11 00:51:07;;;;;;;137.03;53.90;;;1.20;99.90;;;;;;4921503;29;20180;-81
2021/12/11 00:53:49;;;;;;;140.83;55.90;;;1.20;99.90;;;;;;4921031;29;20186;-81
2021/12/11 00:56:19;;;;;;;146.93;56.50;;;1.20;99.90;;;;;;4921534;29;20208;-81
2021/12/11 00:58:49;;;;;;;145.10;56.40;;;1.10;99.90;;;;;;4938166;29;20186;-81
2021/12/11 01:01:18;;;;;;;174.57;67.63;;;1.10;99.90;;;;;;4938472;29;20212;-81
2021/12/11 01:03:56;;;;;;;155.87;63.03;;;1.10;99.90;;;;;;4920939;29;20186;-80
2021/12/11 01:06:23;;;;;;;151.17;59.23;;;1.10;99.90;;;;;;4938406;29;20207;-80
2021/12/11 01:08:58;;;;;;;139.70;55.27;;;1.10;99.90;;;;;;4920925;29;20277;-80
2021/12/11 01:11:30;;;;;;;123.93;51.43;;;1.10;99.90;;;;;;4938356;29;20167;-81
2021/12/11 01:14:32;;;;;;;122.60;50.43;;;1.10;99.90;;;;;;4921162;29;20708;-80
2021/12/11 01:17:07;;;;;;;120.13;48.27;;;1.10;99.90;;;;;;4921162;29;20568;-81
2021/12/11 01:19:38;;;;;;;117.73;45.57;;;1.10;99.90;;;;;;4937608;29;20626;-81
2021/12/11 01:22:21;;;;;;;119.03;49.07;;;1.10;99.90;;;;;;4938122;29;20170;-81
2021/12/11 01:24:51;;;;;;;115.07;45.60;;;1.10;99.90;;;;;;4937527;29;20652;-80
2021/12/11 01:27:23;;;;;;;124.87;48.13;;;1.10;99.90;;;;;;4937742;29;20692;-80
2021/12/11 01:29:51;;;;;;;109.00;45.20;;;1.10;99.90;;;;;;4920649;29;20203;-81
2021/12/11 01:32:17;;;;;;;108.20;46.27;;;1.10;99.90;;;;;;4937933;29;20184;-81
2021/12/11 01:34:45;;;;;;;108.60;46.80;;;1.20;99.90;;;;;;4937227;29;20646;-81
2021/12/11 01:37:11;;;;;;;124.40;48.43;;;1.10;99.90;;;;;;4920604;29;20222;-81
2021/12/11 01:39:40;;;;;;;117.03;45.67;;;1.20;99.90;;;;;;4904878;29;20598;-81
2021/12/11 01:42:11;;;;;;;108.07;44.23;;;1.20;99.90;;;;;;4937683;29;20637;-81
2021/12/11 01:44:39;;;;;;;102.57;42.17;;;1.20;99.90;;;;;;4920239;29;20195;-80
2021/12/11 01:47:12;;;;;;;106.13;41.73;;;1.10;99.90;;;;;;4937569;29;20202;-81
2021/12/11 01:49:40;;;;;;;97.47;40.93;;;1.20;99.90;;;;;;4920240;29;20204;-80
2021/12/11 01:52:12;;;;;;;94.57;41.23;;;1.20;99.90;;;;;;4920396;29;20193;-81
2021/12/11 01:54:43;;;;;;;93.10;39.20;;;1.20;99.90;;;;;;4937221;29;20260;-81
2021/12/11 01:57:22;;;;;;;99.13;41.60;;;1.20;99.90;;;;;;4920308;29;20216;-81
2021/12/11 01:59:53;;;;;;;99.03;40.60;;;1.20;99.90;;;;;;4936815;29;20560;-81
2021/12/11 02:02:31;;;;;;;96.63;39.90;;;1.20;99.90;;;;;;4937393;29;20175;-81
2021/12/11 02:04:58;;;;;;;104.00;42.27;;;1.20;99.90;;;;;;4936177;29;20596;-81
2021/12/11 02:07:36;;;;;;;94.20;39.17;;;1.20;99.90;;;;;;4937443;29;20187;-81
2021/12/11 02:10:10;;;;;;;105.43;43.07;;;1.20;99.90;;;;;;4937625;29;20550;-81
2021/12/11 02:12:40;;;;;;;104.77;43.60;;;1.30;99.90;;;;;;4921007;29;20168;-81
2021/12/11 02:15:11;;;;;;;109.23;43.80;;;1.30;99.90;;;;;;4937392;29;20175;-80
2021/12/11 02:17:46;;;;;;;101.37;39.30;;;1.30;99.90;;;;;;4936936;29;20231;-82
2021/12/11 02:20:15;;;;;;;89.00;36.87;;;1.20;99.90;;;;;;4937370;29;20596;-81
2021/12/11 02:22:47;;;;;;;82.23;34.93;;;1.30;99.90;;;;;;4919472;29;20251;-81
2021/12/11 02:25:28;;;;;;;89.07;38.53;;;1.30;99.90;;;;;;4919546;29;20181;-80
2021/12/11 02:28:02;;;;;;;96.10;38.73;;;1.30;99.90;;;;;;4936482;29;20229;-80
2021/12/11 02:30:33;;;;;;;93.03;38.37;;;1.30;99.90;;;;;;4936842;29;20227;-80
2021/12/11 02:33:07;;;;;;;90.90;36.80;;;1.30;99.90;;;;;;4919413;29;20670;-80
2021/12/11 02:36:09;;;;;;;92.03;38.63;;;1.30;99.90;;;;;;4919865;29;20278;-80
2021/12/11 02:38:52;;;;;;;89.80;36.53;;;1.30;99.90;;;;;;4925185;29;20199;-80
2021/12/11 02:41:27;;;;;;;84.03;35.77;;;1.30;99.90;;;;;;4919604;29;20184;-80
2021/12/11 02:43:57;;;;;;;81.10;35.97;;;1.30;99.90;;;;;;4936143;29;20172;-80
2021/12/11 02:46:31;;;;;;;84.40;37.30;;;1.30;99.90;;;;;;4936559;29;20176;-80
2021/12/11 02:49:11;;;;;;;85.30;36.03;;;1.40;99.90;;;;;;4936454;29;20656;-80
2021/12/11 02:51:46;;;;;;;85.87;34.80;;;1.30;99.90;;;;;;4936509;29;20282;-81
2021/12/11 02:54:24;;;;;;;84.60;36.63;;;1.40;99.90;;;;;;4936427;29;20170;-80
2021/12/11 02:56:57;;;;;;;84.83;37.00;;;1.30;99.90;;;;;;4936424;29;20228;-80
2021/12/11 02:59:28;;;;;;;89.10;38.90;;;1.30;99.90;;;;;;4936279;29;20178;-80
2021/12/11 03:02:07;;;;;;;86.60;38.17;;;1.30;99.90;;;;;;4935960;29;20160;-80
2021/12/11 03:04:38;;;;;;;99.37;40.67;;;1.30;99.90;;;;;;4936617;29;20192;-81
2021/12/11 03:07:11;;;;;;;95.73;43.43;;;1.40;99.90;;;;;;4936051;29;20516;-81
2021/12/11 03:09:41;;;;;;;104.30;42.60;;;1.40;99.90;;;;;;4936368;29;20166;-81
2021/12/11 03:12:09;;;;;;;103.30;44.77;;;1.30;99.90;;;;;;4918805;29;20182;-80
2021/12/11 03:14:36;;;;;;;99.57;42.70;;;1.30;99.90;;;;;;4936205;29;20203;-81
2021/12/11 03:17:04;;;;;;;101.40;41.43;;;1.30;99.90;;;;;;4934892;29;20216;-80
2021/12/11 03:19:32;;;;;;;97.13;40.00;;;1.30;99.90;;;;;;4935903;29;20715;-81
2021/12/11 03:22:00;;;;;;;95.00;40.90;;;1.30;99.90;;;;;;4918672;29;20178;-81
2021/12/11 03:24:28;;;;;;;100.73;40.87;;;1.30;99.90;;;;;;4918910;29;20267;-80
2021/12/11 03:26:55;;;;;;;103.00;43.27;;;1.30;99.90;;;;;;4935478;29;20579;-81
2021/12/11 03:29:21;;;;;;;107.33;43.40;;;1.30;99.90;;;;;;4919254;29;20286;-81
2021/12/11 03:31:48;;;;;;;139.93;50.53;;;1.30;99.90;;;;;;4918368;29;20194;-84
2021/12/11 03:34:22;;;;;;;112.60;44.80;;;1.30;99.90;;;;;;4936201;29;20180;-81
2021/12/11 03:36:49;;;;;;;96.90;41.73;;;1.30;99.90;;;;;;4918557;29;20328;-83
2021/12/11 03:39:20;;;;;;;108.33;42.27;;;1.30;99.90;;;;;;4903168;29;20540;-80
2021/12/11 03:41:47;;;;;;;131.70;47.37;;;1.30;99.90;;;;;;4935861;29;20168;-81
2021/12/11 03:44:14;;;;;;;113.33;45.13;;;1.30;99.90;;;;;;4935488;29;20181;-81
2021/12/11 03:46:40;;;;;;;116.60;45.67;;;1.30;99.90;;;;;;4935824;29;20187;-82
2021/12/11 03:49:12;;;;;;;120.50;48.40;;;1.30;99.90;;;;;;4935543;29;20186;-81
2021/12/11 03:51:40;;;;;;;101.60;43.83;;;1.30;99.90;;;;;;4919234;29;20191;-81
2021/12/11 03:54:09;;;;;;;99.97;38.23;;;1.30;99.90;;;;;;4918452;29;20188;-81
2021/12/11 03:56:37;;;;;;;94.27;37.97;;;1.30;99.90;;;;;;4918557;29;20266;-81
2021/12/11 03:59:09;;;;;;;90.27;36.67;;;1.30;99.90;;;;;;4902682;29;20641;-81
2021/12/11 04:01:57;;;;;;;87.13;37.97;;;1.40;99.90;;;;;;4935771;29;20168;-81
2021/12/11 04:04:28;;;;;;;91.73;36.20;;;1.30;99.90;;;;;;4905774;29;20195;-80
2021/12/11 04:06:55;;;;;;;85.93;38.00;;;1.30;99.90;;;;;;4918415;29;20239;-81
2021/12/11 04:09:22;;;;;;;87.63;39.10;;;1.30;99.90;;;;;;4919207;29;20268;-81
2021/12/11 04:11:49;;;;;;;78.27;35.40;;;1.30;99.90;;;;;;4935230;29;20645;-81
2021/12/11 04:14:23;;;;;;;88.17;37.90;;;1.30;99.90;;;;;;4935020;29;20575;-81
2021/12/11 04:16:51;;;;;;;81.93;35.20;;;1.30;99.90;;;;;;4935608;29;20204;-81
2021/12/11 04:19:17;;;;;;;79.97;34.83;;;1.30;99.90;;;;;;4918315;29;20265;-80
2021/12/11 04:21:44;;;;;;;72.47;33.70;;;1.30;99.90;;;;;;4935548;29;20274;-80
2021/12/11 04:24:12;;;;;;;76.07;33.37;;;1.30;99.90;;;;;;4918070;29;20184;-80
2021/12/11 04:26:38;;;;;;;76.23;34.40;;;1.30;99.90;;;;;;4902774;29;20649;-80
2021/12/11 04:29:06;;;;;;;72.93;33.67;;;1.30;99.90;;;;;;4938759;29;20235;-81
2021/12/11 04:31:36;;;;;;;70.23;31.23;;;1.40;99.90;;;;;;4922200;29;20274;-81
2021/12/11 04:34:05;;;;;;;70.57;31.87;;;1.40;99.90;;;;;;4921583;29;20516;-80
2021/12/11 04:36:41;;;;;;;81.23;33.20;;;1.30;99.90;;;;;;4921861;29;20210;-80
2021/12/11 04:39:09;;;;;;;88.87;36.53;;;1.30;99.90;;;;;;4921576;29;20219;-80
2021/12/11 04:41:49;;;;;;;96.53;36.87;;;1.30;99.90;;;;;;4938832;29;20382;-81
2021/12/11 04:44:28;;;;;;;93.33;39.90;;;1.30;99.90;;;;;;4921397;29;20648;-80
2021/12/11 04:46:54;;;;;;;90.03;40.23;;;1.30;99.90;;;;;;4938805;29;20625;-81
2021/12/11 04:49:31;;;;;;;92.03;38.40;;;1.30;99.90;;;;;;4921364;29;20191;-80
2021/12/11 04:52:04;;;;;;;88.40;38.53;;;1.30;99.90;;;;;;4921666;29;20188;-84
2021/12/11 04:54:46;;;;;;;97.93;39.63;;;1.20;99.90;;;;;;4921644;29;20183;-81
2021/12/11 05:10:53;;;;;;;68.60;31.53;;;1.30;99.90;;;;;;4938140;29;20651;-80
2021/12/11 05:13:21;;;;;;;77.93;34.30;;;1.30;99.90;;;;;;4906770;29;20230;-80
2021/12/11 05:15:49;;;;;;;81.20;33.57;;;1.30;99.90;;;;;;4921021;29;20195;-81
2021/12/11 05:18:18;;;;;;;85.37;36.13;;;1.30;99.90;;;;;;4905120;29;20223;-81
2021/12/11 05:20:48;;;;;;;88.07;35.77;;;1.30;99.90;;;;;;4921296;29;20224;-80
2021/12/11 05:23:16;;;;;;;87.57;37.63;;;1.30;99.90;;;;;;4920905;29;20212;-80
2021/12/11 05:25:42;;;;;;;88.17;35.60;;;1.30;99.90;;;;;;4921077;29;20193;-80
2021/12/11 05:28:08;;;;;;;81.53;34.43;;;1.30;99.90;;;;;;4938046;29;20243;-80
2021/12/11 05:30:38;;;;;;;82.80;34.90;;;1.30;99.90;;;;;;4921347;29;20192;-81
2021/12/11 05:33:04;;;;;;;83.43;35.37;;;1.30;99.90;;;;;;4937615;29;20618;-83
2021/12/11 05:35:33;;;;;;;88.30;36.93;;;1.20;99.90;;;;;;4937900;29;20206;-80
2021/12/11 05:37:59;;;;;;;80.93;34.73;;;1.20;99.90;;;;;;4920762;29;20215;-81
2021/12/11 05:40:27;;;;;;;96.33;36.90;;;1.30;99.90;;;;;;4919492;29;20294;-80
2021/12/11 05:42:53;;;;;;;75.67;34.77;;;1.30;99.90;;;;;;4937836;29;20185;-81
2021/12/11 05:45:19;;;;;;;74.30;34.43;;;1.30;99.90;;;;;;4937556;29;20545;-80
2021/12/11 05:47:46;;;;;;;77.27;36.17;;;1.30;99.90;;;;;;4905081;29;20198;-80
2021/12/11 05:50:25;;;;;;;95.07;38.27;;;1.30;99.90;;;;;;4937801;29;20199;-80
2021/12/11 05:52:53;;;;;;;91.33;38.27;;;1.30;99.90;;;;;;4937984;29;20168;-80
2021/12/11 05:55:20;;;;;;;86.33;36.77;;;;;;;;;;4937707;29;20184;-80
2021/12/11 05:57:57;;;;;;;83.73;36.20;;;1.30;99.90;;;;;;4920716;29;20572;-80
2021/12/11 06:00:34;;;;;;;77.70;34.47;;;1.30;99.90;;;;;;4920748;29;20187;-80
2021/12/11 06:03:02;;;;;;;88.37;35.60;;;1.30;99.90;;;;;;4919834;29;20657;-80
2021/12/11 06:05:28;;;;;;;82.10;36.43;;;1.30;99.90;;;;;;4927097;29;20273;-80
2021/12/11 06:07:54;;;;;;;87.23;36.30;;;1.30;99.90;;;;;;4937693;29;20598;-81
2021/12/11 06:10:21;;;;;;;79.37;35.83;;;1.30;99.90;;;;;;4921772;29;20184;-79
2021/12/11 06:12:50;;;;;;;87.33;36.63;;;1.30;99.90;;;;;;4922185;29;20179;-79
2021/12/11 06:15:16;;;;;;;88.17;37.37;;;1.30;99.90;;;;;;4938782;29;20668;-79
2021/12/11 06:17:43;;;;;;;93.67;36.93;;;1.30;99.90;;;;;;4938620;29;20277;-80
2021/12/11 06:20:13;;;;;;;89.40;38.20;;;1.30;99.90;;;;;;4932894;29;20214;-83
2021/12/11 06:22:39;;;;;;;91.50;38.40;;;1.30;99.90;;;;;;4960658;28;20187;-79
2021/12/11 06:25:13;;;;;;;89.17;39.53;;;1.30;99.90;;;;;;4960940;28;20192;-79
2021/12/11 06:27:40;;;;;;;92.57;39.90;;;1.30;99.90;;;;;;4956804;28;20255;-82
2021/12/11 06:30:07;;;;;;;95.90;39.87;;;1.30;99.90;;;;;;4950291;28;20197;-80
2021/12/11 06:32:33;;;;;;;109.20;40.53;;;1.30;99.90;;;;;;4925122;29;20199;-81
2021/12/11 06:35:05;;;;;;;104.73;40.97;;;1.30;99.90;;;;;;4937021;28;20221;-81
2021/12/11 06:37:31;;;;;;;96.90;39.10;;;1.30;99.90;;;;;;4974257;28;20203;-81
2021/12/11 06:39:56;;;;;;;93.90;39.07;;;1.30;99.90;;;;;;4962455;28;20206;-84
2021/12/11 06:42:23;;;;;;;89.63;37.67;;;1.30;99.90;;;;;;4978591;28;20196;-83
2021/12/11 06:44:49;;;;;;;95.53;41.33;;;1.30;99.90;;;;;;4982259;28;20238;-79
2021/12/11 06:47:15;;;;;;;106.03;43.10;;;1.30;99.90;;;;;;4959349;28;20195;-80
2021/12/11 06:49:44;;;;;;;268.20;81.10;;;1.30;99.90;;;;;;4928316;28;20187;-81
2021/12/11 06:52:13;;;;;;;286.13;83.63;;;1.30;99.90;;;;;;4931144;29;20194;-79
2021/12/11 06:54:40;;;;;;;178.23;58.90;;;1.30;99.90;;;;;;4955074;29;20183;-82
2021/12/11 06:57:06;;;;;;;105.47;41.40;;;1.30;99.90;;;;;;4953235;29;20274;-79
2021/12/11 06:59:33;;;;;;;99.67;38.60;;;1.20;99.90;;;;;;4961094;28;20664;-79
2021/12/11 07:02:00;;;;;;;116.37;42.47;;;1.30;99.90;;;;;;4953177;29;20215;-79
2021/12/11 07:04:25;;;;;;;126.23;47.53;;;1.30;99.90;;;;;;4952555;28;20190;-78
2021/12/11 07:06:54;;;;;;;88.73;36.80;;;1.30;99.90;;;;;;4945700;28;20705;-78
2021/12/11 07:09:23;;;;;;;97.60;37.60;;;1.30;99.90;;;;;;4966433;28;20216;-81
2021/12/11 07:11:51;;;;;;;86.67;36.43;;;1.30;99.90;;;;;;4963824;28;20618;-78
2021/12/11 07:14:19;;;;;;;104.23;41.30;;;1.30;99.90;;;;;;4947079;28;20190;-82
2021/12/11 07:16:45;;;;;;;82.57;34.53;;;1.30;99.90;;;;;;4966253;28;20210;-79
2021/12/11 07:19:11;;;;;;;83.00;34.60;;;1.20;99.90;;;;;;4970871;28;20189;-80
2021/12/11 07:21:38;;;;;;;81.83;35.23;;;1.30;99.90;;;;;;4950046;28;20281;-80
2021/12/11 07:24:07;;;;;;;83.87;37.40;;;1.30;99.90;;;;;;4967089;28;20194;-79
2021/12/11 07:26:34;;;;;;;97.60;42.63;;;1.30;99.90;;;;;;4969405;28;20226;-79
2021/12/11 07:29:20;;;;;;;104.07;48.03;;;1.30;99.90;;;;;;4970453;28;20241;-81
2021/12/11 07:31:48;;;;;;;100.73;43.73;;;1.30;99.90;;;;;;4951420;29;20208;-79
2021/12/11 07:34:15;;;;;;;98.90;42.30;;;1.30;99.90;;;;;;4953860;29;20175;-81
2021/12/11 07:36:41;;;;;;;74.93;35.27;;;1.30;99.90;;;;;;4953751;29;20204;-79
2021/12/11 07:39:12;;;;;;;61.43;31.03;;;1.20;99.90;;;;;;4936870;29;20190;-80
2021/12/11 07:41:38;;;;;;;69.13;31.03;;;1.30;99.90;;;;;;4953788;29;20291;-80
2021/12/11 07:44:04;;;;;;;79.93;35.37;;;1.20;99.90;;;;;;4954275;29;20179;-80
2021/12/11 07:46:31;;;;;;;93.13;40.23;;;1.30;99.90;;;;;;4953973;29;20191;-80
2021/12/11 07:48:57;;;;;;;112.23;47.07;;;1.30;99.90;;;;;;4936905;29;20187;-79
2021/12/11 07:51:26;;;;;;;147.00;54.83;;;1.40;99.90;;;;;;4936666;29;20206;-79
2021/12/11 07:53:53;;;;;;;143.97;53.37;;;1.40;99.90;;;;;;4953997;29;20189;-79
2021/12/11 07:56:20;;;;;;;139.23;52.10;;;1.40;99.90;;;;;;4953974;29;20250;-81
2021/12/11 07:58:47;;;;;;;139.20;55.13;;;1.40;99.90;;;;;;4953629;29;20719;-79
2021/12/11 08:01:14;;;;;;;155.70;60.80;;;1.40;99.90;;;;;;4920651;28;20633;-79
2021/12/11 08:03:40;;;;;;;141.10;56.37;;;1.50;99.90;;;;;;4939560;29;20698;-80
2021/12/11 08:06:07;;;;;;;141.93;61.27;;;1.40;99.90;;;;;;4957813;29;20190;-81
2021/12/11 08:08:34;;;;;;;124.37;52.40;;;1.50;99.90;;;;;;4940233;29;20209;-80
2021/12/11 08:11:02;;;;;;;128.03;50.93;;;1.50;99.90;;;;;;4957515;29;20191;-79
2021/12/11 08:13:28;;;;;;;111.77;49.50;;;1.50;99.90;;;;;;4957558;29;20171;-81
2021/12/11 08:15:55;;;;;;;101.53;44.00;;;1.60;99.90;;;;;;4957778;29;20186;-78
2021/12/11 08:18:24;;;;;;;82.67;36.73;;;1.60;99.90;;;;;;4940791;29;20273;-79
2021/12/11 08:20:50;;;;;;;92.37;41.40;;;1.70;99.90;;;;;;4957279;29;20167;-81
2021/12/11 08:23:17;;;;;;;80.80;37.67;;;1.70;99.90;;;;;;4957330;29;20526;-80
2021/12/11 08:25:45;;;;;;;80.03;39.07;;;1.70;99.90;;;;;;4957041;29;20189;-80
2021/12/11 08:28:13;;;;;;;93.93;40.97;;;1.70;99.90;;;;;;4957666;29;20254;-80
2021/12/11 08:30:42;;;;;;;88.57;40.00;;;1.80;99.90;;;;;;4957110;29;20262;-79
2021/12/11 08:33:08;;;;;;;107.13;44.80;;;1.80;99.90;;;;;;4940138;29;20201;-80
2021/12/11 08:35:35;;;;;;;108.80;46.27;;;2.00;99.90;;;;;;4924229;29;20561;-79
2021/12/11 08:38:08;;;;;;;139.20;51.77;;;2.00;99.90;;;;;;4957287;29;20226;-79
2021/12/11 08:40:39;;;;;;;112.90;45.63;;;2.00;99.90;;;;;;4939899;29;20201;-80
2021/12/11 08:43:07;;;;;;;125.77;50.27;;;2.10;99.90;;;;;;4957092;29;20576;-80
2021/12/11 08:45:45;;;;;;;127.23;51.93;;;2.10;99.90;;;;;;4957087;29;20198;-79
2021/12/11 08:48:17;;;;;;;135.17;58.47;;;2.20;99.90;;;;;;4940165;29;20184;-79
2021/12/11 08:50:45;;;;;;;170.13;63.07;;;2.20;99.90;;;;;;4939928;29;20190;-81
2021/12/11 08:53:11;;;;;;;157.77;61.53;;;2.20;99.90;;;;;;4940751;29;20242;-80
2021/12/11 08:55:41;;;;;;;196.67;75.53;;;2.30;99.90;;;;;;4940148;29;20191;-81
2021/12/11 08:58:09;;;;;;;132.23;56.20;;;2.30;99.90;;;;;;4940116;29;20211;-81
2021/12/11 09:00:44;;;;;;;123.03;53.27;;;2.30;99.90;;;;;;4957305;29;20188;-80
2021/12/11 09:03:16;;;;;;;136.97;55.83;;;2.30;99.90;;;;;;4940298;29;20187;-79
2021/12/11 09:05:47;;;;;;;134.37;54.30;;;2.30;99.90;;;;;;4957146;29;20179;-79
2021/12/11 09:08:23;;;;;;;137.43;56.37;;;2.30;99.90;;;;;;4940469;29;20226;-80
2021/12/11 09:11:00;;;;;;;125.87;52.63;;;2.40;99.90;;;;;;4939243;29;20610;-80
2021/12/11 09:13:38;;;;;;;106.40;46.50;;;2.40;99.90;;;;;;4940005;29;20183;-80
2021/12/11 09:16:07;;;;;;;85.73;38.27;;;2.40;99.90;;;;;;4957282;29;20617;-80
2021/12/11 09:19:01;;;;;;;80.43;37.67;;;2.40;99.90;;;;;;4940022;29;20203;-80
2021/12/11 09:21:39;;;;;;;138.73;48.73;;;2.50;99.90;;;;;;4957723;29;20223;-81
2021/12/11 09:24:10;;;;;;;167.17;59.40;;;2.50;99.90;;;;;;4957357;29;20226;-80
2021/12/11 09:26:48;;;;;;;145.60;55.27;;;2.40;99.90;;;;;;4957335;29;20211;-80
2021/12/11 09:29:24;;;;;;;116.63;48.83;;;2.50;99.90;;;;;;4957004;29;20179;-81
2021/12/11 09:32:18;;;;;;;128.97;50.60;;;2.60;99.90;;;;;;4956627;29;20163;-80
2021/12/11 09:34:59;;;;;;;130.73;52.43;;;2.60;99.90;;;;;;4939684;29;20549;-80
2021/12/11 09:37:25;;;;;;;115.77;48.97;;;2.60;99.90;;;;;;4939741;29;20287;-81
2021/12/11 09:40:07;;;;;;;107.13;45.97;;;2.70;99.90;;;;;;4956700;29;20282;-80
2021/12/11 09:42:32;;;;;;;92.90;44.17;;;2.70;99.90;;;;;;4956660;29;20548;-80
2021/12/11 09:45:03;;;;;;;102.33;45.70;;;2.70;99.90;;;;;;4939002;29;20194;-80
2021/12/11 09:47:38;;;;;;;83.87;39.03;;;2.80;99.90;;;;;;4939506;29;20186;-80
2021/12/11 09:50:13;;;;;;;104.63;47.00;;;2.80;99.90;;;;;;4956802;29;20169;-80
2021/12/11 09:52:43;;;;;;;120.57;53.93;;;2.90;99.90;;;;;;4939217;29;20172;-83
2021/12/11 09:55:18;;;;;;;117.80;53.17;;;2.90;99.90;;;;;;4956590;29;20190;-81
2021/12/11 09:57:49;;;;;;;124.60;54.17;;;3.00;99.90;;;;;;4955914;29;20691;-80
2021/12/11 10:00:27;;;;;;;146.83;66.17;;;3.00;99.90;;;;;;4956285;29;20195;-80
2021/12/11 10:02:53;;;;;;;150.00;60.60;;;3.00;99.90;;;;;;4955970;29;20186;-80
2021/12/11 10:05:32;;;;;;;132.77;59.23;;;3.00;99.90;;;;;;4939225;29;20607;-81
2021/12/11 10:08:26;;;;;;;127.57;59.80;;;3.00;99.90;;;;;;4955776;29;20159;-81
2021/12/11 10:10:53;;;;;;;89.87;40.60;;;3.00;99.90;;;;;;4955814;29;20195;-80
2021/12/11 10:13:20;;;;;;;78.70;38.97;;;3.00;99.90;;;;;;4956014;29;20245;-83
2021/12/11 10:15:46;;;;;;;91.30;43.40;;;3.00;99.90;;;;;;4952795;29;20586;-81
2021/12/11 10:18:20;;;;;;;82.10;40.53;;;3.00;99.90;;;;;;4938990;29;20690;-81
2021/12/11 10:21:01;;;;;;;76.97;37.13;;;3.00;99.90;;;;;;4938103;29;20222;-82
2021/12/11 10:23:30;;;;;;;82.73;38.77;;;2.90;99.90;;;;;;4955237;29;20191;-81
2021/12/11 10:25:59;;;;;;;76.00;37.40;;;3.00;99.90;;;;;;4937353;29;20189;-81
2021/12/11 10:28:27;;;;;;;87.03;40.47;;;3.00;99.90;;;;;;4937250;29;20676;-81
2021/12/11 10:31:11;;;;;;;87.83;39.47;;;3.00;99.90;;;;;;4954628;29;20230;-82
2021/12/11 10:33:37;;;;;;;105.97;43.27;;;3.10;99.90;;;;;;4954221;29;20168;-82
2021/12/11 10:36:15;;;;;;;101.30;45.60;;;3.00;99.90;;;;;;4951863;29;20192;-81
2021/12/11 10:38:43;;;;;;;90.93;40.30;;;3.10;99.90;;;;;;4954868;29;20175;-82
2021/12/11 10:41:11;;;;;;;96.53;45.37;;;3.10;99.90;;;;;;4954540;29;20182;-81
2021/12/11 10:43:42;;;;;;;100.03;48.73;;;3.10;99.90;;;;;;4954645;29;20756;-83
2021/12/11 10:46:10;;;;;;;70.80;36.20;;;3.10;99.90;;;;;;4954950;29;20173;-81
2021/12/11 10:48:37;;;;;;;84.80;39.83;;;3.00;99.90;;;;;;4906683;29;20621;-80
2021/12/11 10:51:12;;;;;;;85.50;39.00;;;2.90;99.90;;;;;;4923072;29;20637;-80
2021/12/11 10:53:42;;;;;;;64.73;33.20;;;2.90;99.90;;;;;;4937461;29;20622;-81
2021/12/11 10:56:09;;;;;;;69.10;33.17;;;2.80;99.90;;;;;;4954765;29;20540;-80
2021/12/11 10:58:39;;;;;;;66.93;32.60;;;2.80;99.90;;;;;;4955069;29;20189;-80
2021/12/11 11:01:27;;;;;;;60.07;30.07;;;2.80;99.90;;;;;;4954925;29;20167;-80
2021/12/11 11:04:05;;;;;;;62.10;32.23;;;2.90;99.90;;;;;;4937198;29;20180;-80
2021/12/11 11:06:31;;;;;;;69.77;32.03;;;3.00;99.90;;;;;;4954674;29;20183;-81
2021/12/11 11:08:57;;;;;;;66.53;33.43;;;3.00;99.90;;;;;;4937256;29;20700;-80
2021/12/11 11:11:25;;;;;;;70.97;32.30;;;2.90;99.90;;;;;;4937711;29;20368;-80
2021/12/11 11:13:52;;;;;;;71.27;33.40;;;2.90;99.90;;;;;;4954610;29;20171;-83
2021/12/11 11:16:19;;;;;;;72.57;34.43;;;2.90;99.90;;;;;;4937618;29;20183;-80
2021/12/11 11:18:46;;;;;;;74.23;36.60;;;2.80;99.90;;;;;;4937556;29;20185;-80
2021/12/11 11:21:16;;;;;;;72.93;35.07;;;2.90;99.90;;;;;;4936864;29;20195;-81
2021/12/11 11:23:45;;;;;;;66.73;34.77;;;2.90;99.90;;;;;;4954760;29;20172;-82
2021/12/11 11:26:15;;;;;;;68.77;35.40;;;2.90;99.90;;;;;;4949869;29;20227;-80
2021/12/11 11:28:41;;;;;;;72.17;35.97;;;2.70;99.90;;;;;;4954325;29;20590;-80
2021/12/11 11:31:12;;;;;;;76.97;36.87;;;2.80;99.90;;;;;;4936872;29;20190;-80
2021/12/11 11:33:40;;;;;;;68.43;33.80;;;2.90;99.90;;;;;;4954280;29;20169;-81
2021/12/11 11:36:09;;;;;;;61.53;33.03;;;2.90;99.90;;;;;;4936536;29;20551;-80
2021/12/11 11:38:38;;;;;;;72.43;33.67;;;2.90;99.90;;;;;;4953773;29;20210;-81
2021/12/11 11:41:08;;;;;;;62.63;32.33;;;2.80;99.90;;;;;;4946298;29;20266;-81
2021/12/11 11:43:35;;;;;;;67.23;33.67;;;2.70;99.90;;;;;;4934657;29;20248;-80
2021/12/11 11:46:01;;;;;;;70.30;33.87;;;2.70;99.90;;;;;;4917780;29;20197;-81
2021/12/11 11:48:30;;;;;;;62.03;33.10;;;2.80;99.90;;;;;;4933860;29;20227;-80
2021/12/11 11:51:01;;;;;;;69.47;35.23;;;2.80;99.90;;;;;;4916525;29;20181;-81
2021/12/11 11:53:27;;;;;;;64.03;33.03;;;2.70;99.90;;;;;;4933504;29;20194;-80
2021/12/11 11:56:01;;;;;;;67.37;33.73;;;2.80;99.90;;;;;;4933655;29;20244;-81
2021/12/11 11:58:29;;;;;;;67.37;31.77;;;2.80;99.90;;;;;;4931911;29;20197;-82
2021/12/11 12:00:58;;;;;;;61.57;30.97;;;2.80;99.90;;;;;;4916663;29;20570;-81
2021/12/11 12:03:28;;;;;;;65.53;33.43;;;2.80;99.90;;;;;;4931907;29;20179;-80
2021/12/11 12:06:00;;;;;;;61.27;31.13;;;2.80;99.90;;;;;;4933603;29;20187;-81
2021/12/11 12:08:27;;;;;;;64.10;32.40;;;2.80;99.90;;;;;;4917653;29;20279;-78
2021/12/11 12:10:55;;;;;;;61.57;31.60;;;2.80;99.90;;;;;;4934846;29;20249;-81
2021/12/11 12:13:24;;;;;;;57.27;30.33;;;2.70;99.90;;;;;;4934672;29;20284;-80
2021/12/11 12:15:55;;;;;;;63.80;29.87;;;2.80;99.90;;;;;;4933246;29;20553;-79
2021/12/11 12:18:27;;;;;;;64.50;31.87;;;2.70;99.90;;;;;;4916333;29;20271;-79
2021/12/11 12:20:54;;;;;;;61.97;31.73;;;2.70;99.90;;;;;;4916394;29;20221;-81
2021/12/11 12:23:20;;;;;;;67.83;33.07;;;2.70;99.90;;;;;;4932658;29;20188;-80
2021/12/11 12:25:48;;;;;;;64.03;32.87;;;2.70;99.90;;;;;;4931798;29;20272;-79
2021/12/11 12:28:14;;;;;;;67.93;35.07;;;2.60;99.90;;;;;;4929320;29;20228;-79
2021/12/11 12:30:47;;;;;;;66.87;34.47;;;2.70;99.90;;;;;;4911913;29;20236;-80
2021/12/11 12:33:16;;;;;;;79.43;36.37;;;2.70;99.90;;;;;;4907763;29;20667;-80
2021/12/11 12:35:43;;;;;;;70.03;34.93;;;2.60;99.90;;;;;;4922771;29;20343;-80
2021/12/11 12:38:13;;;;;;;72.73;37.60;;;2.70;99.90;;;;;;4922795;29;20198;-79
2021/12/11 12:41:05;;;;;;;76.57;38.23;;;2.70;99.90;;;;;;4905754;29;20185;-79
2021/12/11 12:46:28;;;;;;;78.70;37.10;;;2.70;99.90;;;;;;4921585;29;21128;-79
2021/12/11 12:48:55;;;;;;;73.23;37.67;;;2.70;99.90;;;;;;4930236;29;20208;-80
2021/12/11 12:51:23;;;;;;;73.40;37.83;;;2.70;99.90;;;;;;4935832;29;20191;-80
2021/12/11 12:53:49;;;;;;;80.07;40.03;;;2.70;99.90;;;;;;4916186;29;20270;-79
2021/12/11 12:56:20;;;;;;;85.93;39.57;;;2.60;99.90;;;;;;4921990;29;20196;-78
2021/12/11 12:58:48;;;;;;;80.17;39.90;;;2.60;99.90;;;;;;4941126;29;20176;-79
2021/12/11 13:01:22;;;;;;;89.57;40.07;;;2.60;99.90;;;;;;4941153;29;20181;-79
2021/12/11 13:03:50;;;;;;;87.80;39.90;;;2.60;99.90;;;;;;4941012;29;20258;-78
2021/12/11 13:06:23;;;;;;;95.57;41.40;;;2.60;99.90;;;;;;4935669;29;20182;-81